North Eastham, Massachusetts
Current Conditions -  °F | °C
As of 11:52 AM on Sunday 23 Nov 2014 (Local Time) from KCQX Reporting Station
Clear Clear  
Wind Chill: 55°   Ceiling: Unl
Heat Index: 55°   Visibility: 10mi
Dew Point: 38°   Wind: 16mph
Humidity: 53%   Direction: 250°WSW
Pressure: 30.15"   Gusts: 26mph
Location:  41.85°N, 70°W
Report Text: KCQX 231652Z AUTO 25014G23KT 10SM CLR 13/03 A3015 RMK AO2 SLP210 T01280033
Loading
Personal Weather Stations






























Interactive Weather Map New forecast layout! Learn more

10-Day Weather Forecast

Advertisements
Track Severe Weather on mobile